Time;durP1;ratioP1;P1;durP2;ratioP2;P2;SDS_P1;SDS_P2;PMS_P1;PMS_P2;Temp;Humidity;BMP_temperature;BMP_pressure;BME280_temperature;BME280_humidity;BME280_pressure;Samples;Min_cycle;Max_cycle;Signal;HPM_P1;HPM_P2
2022/12/26 00:02:23;;;;;;;5.75;5.25;;;20.50;77.10;;;;;;5029682;28;20591;-41
2022/12/26 00:04:49;;;;;;;7.53;4.90;;;20.50;76.90;;;;;;5035446;28;20211;-41
2022/12/26 00:07:17;;;;;;;4.35;3.47;;;20.50;76.90;;;;;;5021968;28;20660;-41
2022/12/26 00:09:44;;;;;;;4.63;4.22;;;20.60;76.90;;;;;;5034975;28;20630;-41
2022/12/26 00:12:11;;;;;;;5.45;4.95;;;20.70;76.30;;;;;;5033667;28;20636;-41
2022/12/26 00:14:39;;;;;;;5.80;3.72;;;20.80;75.90;;;;;;5026449;28;20204;-41
2022/12/26 00:17:05;;;;;;;3.88;3.20;;;20.80;75.60;;;;;;5024294;28;20195;-56
2022/12/26 00:19:32;;;;;;;4.47;4.07;;;20.80;75.50;;;;;;5033550;28;20222;-41
2022/12/26 00:21:59;;;;;;;5.45;5.05;;;20.80;75.40;;;;;;5037076;28;20199;-41
2022/12/26 00:24:27;;;;;;;4.93;4.40;;;20.80;75.40;;;;;;5022883;28;20201;-41
2022/12/26 00:26:53;;;;;;;5.05;4.63;;;20.70;75.30;;;;;;5024627;28;20192;-41
2022/12/26 00:29:21;;;;;;;4.22;3.85;;;20.70;75.20;;;;;;5033297;28;20196;-41
2022/12/26 00:31:48;;;;;;;4.47;4.07;;;20.70;75.20;;;;;;5029414;28;20225;-40
2022/12/26 00:34:15;;;;;;;6.05;5.45;;;20.70;76.00;;;;;;5026982;28;20282;-41
2022/12/26 00:36:42;;;;;;;6.80;6.22;;;20.70;75.30;;;;;;5026480;28;20195;-43
2022/12/26 00:39:09;;;;;;;3.63;3.33;;;20.70;75.30;;;;;;5023680;28;20200;-41
2022/12/26 00:41:37;;;;;;;3.83;3.42;;;20.70;75.20;;;;;;5027390;28;20203;-43
2022/12/26 00:44:04;;;;;;;4.22;3.85;;;20.60;75.20;;;;;;5021519;28;20215;-41
2022/12/26 00:46:31;;;;;;;5.35;4.68;;;20.60;75.30;;;;;;5020320;28;20212;-47
2022/12/26 00:48:57;;;;;;;6.70;3.65;;;20.50;75.30;;;;;;5035412;28;20201;-41
2022/12/26 00:51:24;;;;;;;4.22;3.83;;;20.50;75.40;;;;;;5029166;28;20228;-41
2022/12/26 00:53:51;;;;;;;4.30;3.83;;;20.50;75.50;;;;;;5029125;28;20207;-41
2022/12/26 00:56:18;;;;;;;4.03;3.00;;;20.40;75.40;;;;;;5027535;28;20193;-41
2022/12/26 00:58:46;;;;;;;4.68;3.70;;;20.40;75.40;;;;;;5036850;28;20561;-41
2022/12/26 01:01:16;;;;;;;3.10;2.85;;;20.40;75.50;;;;;;5030981;28;20206;-41
2022/12/26 01:03:43;;;;;;;4.90;4.50;;;20.40;75.50;;;;;;5032524;28;20230;-40
2022/12/26 01:06:10;;;;;;;3.13;2.83;;;20.40;75.50;;;;;;5028295;28;20675;-41
2022/12/26 01:08:37;;;;;;;4.78;4.38;;;20.30;75.40;;;;;;5029030;28;20595;-41
2022/12/26 01:11:06;;;;;;;4.10;3.75;;;20.30;75.50;;;;;;5028880;28;20220;-41
2022/12/26 01:13:33;;;;;;;4.03;3.67;;;20.30;75.50;;;;;;5031564;28;20200;-41
2022/12/26 01:16:01;;;;;;;3.45;3.15;;;20.30;75.40;;;;;;5029010;28;20195;-41
2022/12/26 01:18:29;;;;;;;3.75;2.97;;;20.30;75.50;;;;;;5027268;28;20203;-41
2022/12/26 01:21:00;;;;;;;3.45;3.20;;;20.30;75.60;;;;;;5039747;28;20220;-41
2022/12/26 01:23:26;;;;;;;5.95;4.13;;;20.30;75.60;;;;;;5024854;28;20197;-41
2022/12/26 01:25:53;;;;;;;2.88;2.55;;;20.20;75.50;;;;;;5034042;28;20187;-41
2022/12/26 01:28:20;;;;;;;2.53;2.25;;;20.20;75.50;;;;;;5043625;28;20192;-41
2022/12/26 01:30:47;;;;;;;2.67;2.47;;;20.20;76.30;;;;;;5030209;28;20223;-41
2022/12/26 01:33:15;;;;;;;3.90;2.92;;;20.20;75.60;;;;;;5033518;28;20686;-41
2022/12/26 01:35:50;;;;;;;3.85;3.35;;;20.20;75.60;;;;;;5034054;28;20205;-41
2022/12/26 01:38:17;;;;;;;4.45;2.97;;;20.20;75.50;;;;;;5028060;28;20229;-40
2022/12/26 01:40:44;;;;;;;3.90;3.40;;;20.20;75.50;;;;;;5035930;28;20288;-41
2022/12/26 01:43:12;;;;;;;3.20;3.00;;;20.20;75.50;;;;;;5033634;28;20215;-41
2022/12/26 01:45:39;;;;;;;3.28;3.03;;;20.20;75.60;;;;;;5030038;28;20205;-41
2022/12/26 01:48:16;;;;;;;4.10;3.08;;;20.20;75.60;;;;;;5034007;28;20250;-41
2022/12/26 01:50:49;;;;;;;4.00;3.65;;;20.30;75.20;;;;;;5018447;28;20222;-41
2022/12/26 01:53:20;;;;;;;3.97;3.47;;;20.40;74.80;;;;;;5021612;28;20207;-41
2022/12/26 01:55:52;;;;;;;3.10;2.70;;;20.50;74.60;;;;;;5032189;28;20264;-41
2022/12/26 01:58:27;;;;;;;5.40;4.00;;;20.50;74.50;;;;;;5033050;28;20299;-41
2022/12/26 02:00:54;;;;;;;2.97;2.65;;;20.50;74.40;;;;;;5026869;28;20199;-41
2022/12/26 02:06:10;;;;;;;3.90;3.10;;;20.40;74.20;;;;;;5023425;28;20202;-41
2022/12/26 02:08:37;;;;;;;2.97;2.67;;;20.40;74.20;;;;;;5025154;28;20263;-41
2022/12/26 02:11:10;;;;;;;5.25;4.03;;;20.40;74.20;;;;;;5029897;28;20220;-40
2022/12/26 02:13:38;;;;;;;3.70;3.40;;;20.40;74.30;;;;;;5031415;28;20195;-41
2022/12/26 02:16:07;;;;;;;3.08;2.83;;;20.40;74.30;;;;;;5028183;28;20196;-40
2022/12/26 02:18:35;;;;;;;5.32;4.93;;;20.40;74.30;;;;;;5025768;28;20302;-41
2022/12/26 02:21:22;;;;;;;3.10;2.58;;;20.30;74.30;;;;;;5038104;28;20228;-41
2022/12/26 02:24:25;;;;;;;3.40;2.65;;;20.30;74.40;;;;;;5013997;28;20201;-41
2022/12/26 02:27:10;;;;;;;3.25;2.63;;;20.30;74.40;;;;;;5033007;28;20682;-40
2022/12/26 02:30:05;;;;;;;6.70;6.15;;;20.20;74.40;;;;;;5025591;28;20207;-41
2022/12/26 02:33:12;;;;;;;6.88;6.28;;;20.20;74.40;;;;;;5023671;28;20561;-41
2022/12/26 02:36:05;;;;;;;4.60;4.20;;;20.20;74.50;;;;;;5021011;28;20200;-41
2022/12/26 02:38:38;;;;;;;3.50;3.20;;;20.20;74.50;;;;;;5020380;28;20669;-41
2022/12/26 02:41:20;;;;;;;3.20;2.97;;;20.20;74.50;;;;;;5028381;28;20203;-41
2022/12/26 02:44:00;;;;;;;4.78;4.38;;;20.20;74.50;;;;;;5034167;28;20195;-41
2022/12/26 03:13:09;;;;;;;4.18;2.65;;;20.20;74.70;;;;;;5028132;28;20207;-41
2022/12/26 03:17:18;;;;;;;5.38;4.90;;;20.10;74.60;;;;;;5026908;28;20203;-41
2022/12/26 03:18:21;;;;;;;3.42;3.13;;;20.10;74.70;;;;;;5032299;28;20195;-41
2022/12/26 03:20:49;;;;;;;4.05;3.75;;;20.10;74.60;;;;;;5025917;28;20303;-41
2022/12/26 03:23:18;;;;;;;3.60;3.22;;;20.00;74.50;;;;;;5024220;28;20193;-41
2022/12/26 03:28:34;;;;;;;5.47;4.97;;;20.00;74.50;;;;;;5030742;28;20211;-41
2022/12/26 03:31:04;;;;;;;3.50;3.20;;;20.00;74.60;;;;;;5024357;28;20216;-41
2022/12/26 03:36:32;;;;;;;8.13;7.57;;;20.00;74.60;;;;;;5031400;28;20349;-41
2022/12/26 03:39:12;;;;;;;5.30;4.80;;;20.00;74.60;;;;;;5022157;28;20231;-41
2022/12/26 04:44:10;;;;;;;4.13;3.80;;;20.10;73.80;;;;;;5022809;28;20575;-41
2022/12/26 04:46:41;;;;;;;4.03;3.63;;;20.00;73.70;;;;;;5022735;28;20672;-41
2022/12/26 04:51:55;;;;;;;6.25;5.85;;;20.00;73.80;;;;;;5021758;28;20308;-41
2022/12/26 04:54:22;;;;;;;2.45;2.25;;;20.00;73.90;;;;;;5030021;28;20208;-40
2022/12/26 04:56:49;;;;;;;4.20;3.90;;;19.90;73.90;;;;;;5022240;28;20568;-41
2022/12/26 04:59:16;;;;;;;3.10;2.90;;;19.90;74.00;;;;;;5033429;28;20193;-40
2022/12/26 05:10:12;;;;;;;4.80;4.40;;;20.30;72.90;;;;;;5032712;28;20226;-40
2022/12/26 05:12:39;;;;;;;5.40;5.03;;;20.40;72.50;;;;;;5017589;28;20220;-40
2022/12/26 05:15:06;;;;;;;3.05;2.85;;;20.50;72.20;;;;;;5023920;28;20684;-40
2022/12/26 05:28:42;;;;;;;3.05;2.85;;;21.00;70.60;;;;;;5029633;28;20204;-41
2022/12/26 05:31:09;;;;;;;4.65;4.28;;;21.10;70.40;;;;;;5027730;28;20214;-40
2022/12/26 05:36:24;;;;;;;2.88;2.47;;;21.20;70.20;;;;;;5036244;28;20216;-40
2022/12/26 05:38:51;;;;;;;2.28;2.08;;;21.30;70.00;;;;;;5028139;28;20204;-40
2022/12/26 05:41:18;;;;;;;2.47;2.28;;;21.30;69.70;;;;;;5027704;28;20246;-40
2022/12/26 05:43:45;;;;;;;2.80;2.60;;;21.40;69.80;;;;;;5028499;28;20216;-41
2022/12/26 05:46:12;;;;;;;3.00;2.80;;;21.40;69.70;;;;;;5030730;28;20201;-41
2022/12/26 05:48:40;;;;;;;3.33;3.13;;;21.30;69.80;;;;;;5032186;28;20200;-41
2022/12/26 05:51:07;;;;;;;3.55;3.25;;;21.30;69.90;;;;;;5030610;28;20563;-40
2022/12/26 05:53:33;;;;;;;3.10;2.80;;;21.20;69.90;;;;;;5017478;28;20197;-40
2022/12/26 05:56:04;;;;;;;3.35;3.10;;;21.20;70.00;;;;;;5023284;28;20196;-40
2022/12/26 05:58:30;;;;;;;3.67;3.38;;;21.30;70.00;;;;;;5021458;28;20220;-40
2022/12/26 06:01:05;;;;;;;2.67;2.47;;;21.30;69.70;;;;;;5032624;28;20323;-40
2022/12/26 06:03:32;;;;;;;3.35;3.15;;;21.40;69.50;;;;;;5030369;28;20298;-40
2022/12/26 06:06:00;;;;;;;6.47;5.97;;;21.40;69.30;;;;;;5033690;28;20189;-41
2022/12/26 06:08:27;;;;;;;3.78;3.42;;;21.50;69.40;;;;;;5026059;28;20200;-41
2022/12/26 06:10:54;;;;;;;3.83;3.53;;;21.50;69.10;;;;;;5029374;28;20197;-40
2022/12/26 06:13:21;;;;;;;6.40;5.90;;;21.60;69.00;;;;;;5031262;28;20227;-41
2022/12/26 06:15:47;;;;;;;3.78;3.47;;;21.60;68.80;;;;;;5034655;28;20956;-40
2022/12/26 06:18:14;;;;;;;2.60;2.40;;;21.60;68.90;;;;;;5032499;28;20656;-41
2022/12/26 06:20:41;;;;;;;3.50;3.20;;;21.60;68.90;;;;;;5032202;28;20581;-40
2022/12/26 06:23:09;;;;;;;2.92;2.72;;;21.60;68.90;;;;;;5032832;28;20202;-40
2022/12/26 06:25:36;;;;;;;2.90;2.60;;;21.50;69.00;;;;;;5017365;28;20207;-40
2022/12/26 06:28:02;;;;;;;6.50;6.00;;;21.50;69.10;;;;;;5031916;28;21875;-40
2022/12/26 06:30:29;;;;;;;3.30;3.10;;;21.50;69.30;;;;;;5031290;28;20201;-40
2022/12/26 06:32:56;;;;;;;2.60;2.40;;;21.40;69.10;;;;;;5032511;28;20231;-41
2022/12/26 06:35:22;;;;;;;3.85;3.55;;;21.50;69.30;;;;;;5022671;28;20207;-40
2022/12/26 06:37:49;;;;;;;3.40;3.10;;;21.50;69.00;;;;;;5027833;28;20590;-41
2022/12/26 06:40:17;;;;;;;4.47;4.18;;;21.60;68.90;;;;;;5026409;28;20197;-45
2022/12/26 06:42:44;;;;;;;5.38;5.05;;;21.60;68.90;;;;;;5024172;28;20305;-41
2022/12/26 06:45:11;;;;;;;5.70;5.30;;;21.70;68.80;;;;;;5022522;28;20224;-41
2022/12/26 06:47:38;;;;;;;9.40;8.80;;;21.70;68.60;;;;;;5030953;28;20201;-41
2022/12/26 06:50:05;;;;;;;5.28;4.97;;;21.80;68.50;;;;;;5030101;28;20209;-41
2022/12/26 06:52:32;;;;;;;9.65;9.02;;;21.80;68.40;;;;;;5030098;28;20221;-40
2022/12/26 06:54:58;;;;;;;10.07;9.57;;;21.70;68.30;;;;;;5030482;28;20197;-40
2022/12/26 06:57:26;;;;;;;12.63;11.98;;;21.70;68.50;;;;;;5027960;28;20196;-41
2022/12/26 06:59:53;;;;;;;14.82;14.13;;;21.70;68.50;;;;;;5020247;28;20202;-41
2022/12/26 07:02:20;;;;;;;20.35;19.30;;;21.70;68.70;;;;;;5027811;28;20199;-41
2022/12/26 07:04:46;;;;;;;27.05;25.92;;;21.60;68.60;;;;;;5029713;28;20201;-41
2022/12/26 07:07:13;;;;;;;21.30;20.48;;;21.70;68.60;;;;;;5030431;28;20224;-41
2022/12/26 07:09:40;;;;;;;31.85;30.58;;;21.70;68.50;;;;;;5022603;28;20216;-41
2022/12/26 07:12:07;;;;;;;20.77;19.85;;;21.70;68.50;;;;;;5022569;28;20693;-41
2022/12/26 07:14:36;;;;;;;48.38;46.60;;;21.80;68.50;;;;;;5028721;28;20192;-41
2022/12/26 07:17:02;;;;;;;53.25;51.30;;;21.80;68.30;;;;;;5029976;28;20192;-40
2022/12/26 07:19:29;;;;;;;65.13;62.35;;;21.80;68.20;;;;;;5027142;28;20224;-41
2022/12/26 07:21:56;;;;;;;96.40;92.82;;;21.80;68.20;;;;;;5025121;28;20558;-40
2022/12/26 07:24:22;;;;;;;94.00;90.57;;;21.80;68.30;;;;;;5025830;28;20217;-40
2022/12/26 07:26:49;;;;;;;93.80;90.55;;;21.80;68.20;;;;;;5030266;28;20196;-41
2022/12/26 07:29:20;;;;;;;90.68;87.38;;;21.90;68.20;;;;;;5025230;28;20201;-41
2022/12/26 07:31:48;;;;;;;106.82;103.18;;;21.80;68.20;;;;;;5028443;28;20737;-41
2022/12/26 07:34:15;;;;;;;81.15;78.25;;;21.90;68.20;;;;;;5026277;28;20193;-41
2022/12/26 07:36:42;;;;;;;75.57;72.65;;;21.90;68.20;;;;;;5032019;28;20203;-41
2022/12/26 07:39:09;;;;;;;57.03;55.03;;;21.90;68.20;;;;;;5029859;28;20195;-41
2022/12/26 07:44:19;;;;;;;63.95;61.70;;;21.80;68.20;;;;;;5032447;28;20215;-40
2022/12/26 07:46:47;;;;;;;56.00;54.00;;;21.80;68.20;;;;;;5024685;28;20211;-41
2022/12/26 07:49:15;;;;;;;65.55;62.72;;;21.80;69.00;;;;;;5032437;28;20193;-41
2022/12/26 07:51:42;;;;;;;47.63;45.97;;;21.90;68.30;;;;;;5024484;28;20205;-41
2022/12/26 07:54:09;;;;;;;57.05;55.00;;;21.90;68.30;;;;;;5038831;28;20195;-41
2022/12/26 07:56:36;;;;;;;43.95;42.20;;;21.80;68.20;;;;;;5025188;28;20205;-40
2022/12/26 07:59:03;;;;;;;38.80;37.30;;;21.90;68.80;;;;;;5030734;28;20197;-39
2022/12/26 08:01:30;;;;;;;35.38;33.58;;;21.90;68.80;;;;;;5027399;28;20197;-39
2022/12/26 08:03:58;;;;;;;54.40;52.40;;;22.00;68.90;;;;;;5018359;28;20668;-41
2022/12/26 08:06:24;;;;;;;44.70;42.73;;;22.00;68.70;;;;;;5021925;28;21528;-40
2022/12/26 08:08:51;;;;;;;29.33;28.10;;;22.00;68.90;;;;;;5017530;28;20459;-40
2022/12/26 08:11:21;;;;;;;40.15;38.55;;;21.90;68.90;;;;;;5018488;28;20264;-40
2022/12/26 08:13:47;;;;;;;30.35;28.85;;;21.90;69.00;;;;;;5018955;28;20231;-41
2022/12/26 08:16:15;;;;;;;64.03;61.47;;;21.80;69.20;;;;;;5021312;28;20207;-40
2022/12/26 08:18:42;;;;;;;46.03;44.30;;;21.80;69.30;;;;;;5021447;28;20224;-40
2022/12/26 08:21:11;;;;;;;43.55;41.55;;;21.70;70.60;;;;;;5030763;28;20696;-40
2022/12/26 08:23:37;;;;;;;28.27;27.00;;;21.70;70.10;;;;;;5018901;28;20200;-41
2022/12/26 08:26:06;;;;;;;34.08;32.47;;;21.70;69.80;;;;;;5015937;28;20664;-40
2022/12/26 08:28:32;;;;;;;35.13;33.58;;;21.80;69.80;;;;;;5019929;28;20689;-40
2022/12/26 08:30:59;;;;;;;36.03;34.67;;;21.70;69.70;;;;;;5020140;28;20195;-40
2022/12/26 08:33:26;;;;;;;22.20;21.17;;;21.80;69.80;;;;;;5022640;28;20310;-40
2022/12/26 08:35:53;;;;;;;14.07;13.48;;;21.90;70.00;;;;;;5025385;28;20475;-40
2022/12/26 08:38:21;;;;;;;23.35;22.08;;;21.90;69.90;;;;;;5022684;28;20196;-40
2022/12/26 08:40:55;;;;;;;29.77;28.33;;;21.90;69.80;;;;;;5018576;28;20202;-41
2022/12/26 08:43:22;;;;;;;18.50;17.63;;;21.90;69.90;;;;;;5020295;28;20966;-40
2022/12/26 08:45:57;;;;;;;26.38;25.17;;;21.90;70.00;;;;;;5017807;28;21005;-41
2022/12/26 08:48:24;;;;;;;29.48;28.05;;;21.90;70.00;;;;;;5020314;28;20204;-40
2022/12/26 08:50:56;;;;;;;26.90;25.73;;;21.90;70.20;;;;;;5017649;28;20661;-41
2022/12/26 08:53:24;;;;;;;23.73;22.70;;;21.90;70.20;;;;;;5023889;28;20232;-39
2022/12/26 08:55:51;;;;;;;23.67;22.17;;;21.90;70.30;;;;;;5020217;28;20670;-40
2022/12/26 08:58:18;;;;;;;25.60;24.50;;;21.90;70.40;;;;;;5022623;28;20204;-41
2022/12/26 09:00:44;;;;;;;19.52;18.70;;;21.80;70.40;;;;;;5025234;28;20466;-42
2022/12/26 09:03:11;;;;;;;27.60;26.53;;;21.80;70.50;;;;;;5029560;28;20207;-41
2022/12/26 09:05:38;;;;;;;25.77;24.58;;;21.90;70.60;;;;;;5026095;28;20855;-41
2022/12/26 09:08:05;;;;;;;19.65;18.75;;;21.90;70.70;;;;;;5030174;28;20219;-41
2022/12/26 09:10:33;;;;;;;13.65;12.98;;;21.90;70.70;;;;;;5025413;28;20205;-41
2022/12/26 09:13:00;;;;;;;16.73;15.73;;;21.90;70.80;;;;;;5027869;28;20219;-41
2022/12/26 09:15:26;;;;;;;18.05;17.13;;;21.90;71.00;;;;;;5029308;28;20204;-41
2022/12/26 09:17:53;;;;;;;20.95;19.90;;;21.90;71.10;;;;;;5023846;28;20713;-40
2022/12/26 09:20:20;;;;;;;21.33;20.23;;;21.80;71.40;;;;;;5020278;28;20218;-41
2022/12/26 09:22:54;;;;;;;20.13;19.20;;;21.80;71.70;;;;;;5025001;28;20197;-41
2022/12/26 09:25:22;;;;;;;22.10;21.15;;;21.70;71.80;;;;;;5023028;28;20211;-41
2022/12/26 09:27:52;;;;;;;13.60;12.90;;;21.60;72.00;;;;;;5029626;28;20203;-41
2022/12/26 09:30:20;;;;;;;15.55;14.55;;;21.60;72.40;;;;;;5033101;28;20679;-41
2022/12/26 09:32:47;;;;;;;17.05;16.30;;;21.40;72.70;;;;;;5031181;28;20260;-41
2022/12/26 09:35:13;;;;;;;18.92;17.60;;;21.40;73.70;;;;;;5028315;28;20291;-44
2022/12/26 09:37:40;;;;;;;30.25;28.95;;;21.40;73.80;;;;;;5031417;28;20568;-45
2022/12/26 09:40:31;;;;;;;20.35;19.10;;;21.40;73.70;;;;;;5033710;28;20198;-44
2022/12/26 09:43:09;;;;;;;15.98;15.27;;;21.50;74.10;;;;;;5027529;28;20200;-45
2022/12/26 09:45:50;;;;;;;26.63;25.60;;;21.70;74.00;;;;;;5031027;28;20218;-43
2022/12/26 09:48:24;;;;;;;20.17;19.37;;;22.00;73.70;;;;;;5032554;28;20224;-46
2022/12/26 09:50:51;;;;;;;19.45;18.73;;;22.20;73.00;;;;;;5021590;28;20455;-48
2022/12/26 09:53:25;;;;;;;18.65;17.83;;;22.30;72.50;;;;;;5029987;28;20228;-43
2022/12/26 09:55:56;;;;;;;30.00;28.80;;;22.40;72.10;;;;;;5022090;28;20193;-45
2022/12/26 09:58:27;;;;;;;37.47;36.13;;;22.50;71.90;;;;;;5033090;28;20687;-48
2022/12/26 10:00:59;;;;;;;56.63;54.13;;;22.50;71.60;;;;;;5029279;28;20196;-45
2022/12/26 10:03:27;;;;;;;51.22;49.35;;;22.60;71.60;;;;;;5030003;28;20209;-45
2022/12/26 10:06:21;;;;;;;55.60;53.60;;;22.60;71.50;;;;;;5026440;28;20196;-45
2022/12/26 10:09:11;;;;;;;74.40;71.20;;;22.60;71.30;;;;;;5014937;28;20464;-45
2022/12/26 10:12:01;;;;;;;69.60;66.63;;;22.70;71.20;;;;;;5023212;28;20466;-43
2022/12/26 10:14:41;;;;;;;50.77;48.87;;;22.60;71.40;;;;;;5019073;28;20499;-52
2022/12/26 10:17:14;;;;;;;55.43;53.43;;;22.80;71.10;;;;;;5027841;28;20459;-54
2022/12/26 10:19:57;;;;;;;58.33;56.20;;;22.90;70.70;;;;;;5025606;28;20571;-47
2022/12/26 10:22:37;;;;;;;57.97;55.70;;;22.90;70.60;;;;;;5028022;28;20499;-44
2022/12/26 10:25:16;;;;;;;56.85;54.65;;;22.90;70.60;;;;;;5028682;28;21098;-45
2022/12/26 10:27:43;;;;;;;69.27;66.53;;;22.80;70.70;;;;;;5021570;28;20200;-44
2022/12/26 10:30:18;;;;;;;64.23;61.73;;;22.80;70.80;;;;;;5023179;28;20483;-45
2022/12/26 10:32:50;;;;;;;71.20;68.20;;;22.80;71.10;;;;;;5019175;28;20989;-43
2022/12/26 10:35:28;;;;;;;48.90;46.97;;;22.80;71.00;;;;;;5022592;28;20475;-45
2022/12/26 10:37:56;;;;;;;54.23;52.03;;;23.00;70.80;;;;;;5022155;28;20460;-45
2022/12/26 10:40:27;;;;;;;53.47;51.50;;;23.00;70.50;;;;;;5021422;28;20456;-44
2022/12/26 10:42:56;;;;;;;49.47;47.63;;;23.00;70.30;;;;;;5034129;28;20454;-45
2022/12/26 10:45:33;;;;;;;44.27;42.13;;;22.90;70.70;;;;;;5030553;28;20482;-44
2022/12/26 10:48:00;;;;;;;40.47;38.53;;;22.90;70.80;;;;;;5030762;28;20458;-45
2022/12/26 10:50:28;;;;;;;30.40;28.47;;;22.90;71.40;;;;;;5029823;28;20455;-43
2022/12/26 10:52:57;;;;;;;17.67;16.73;;;22.90;71.40;;;;;;5033286;28;20491;-51
2022/12/26 10:55:29;;;;;;;22.13;20.93;;;22.90;71.40;;;;;;5031869;28;20477;-47
2022/12/26 10:58:01;;;;;;;20.30;18.80;;;22.90;71.40;;;;;;5026208;28;20451;-45
2022/12/26 11:00:29;;;;;;;21.73;20.37;;;23.00;71.20;;;;;;5027355;28;20810;-45
2022/12/26 11:03:04;;;;;;;17.37;16.33;;;23.10;71.00;;;;;;5030131;28;20465;-43
2022/12/26 11:05:32;;;;;;;18.20;17.10;;;23.10;71.10;;;;;;5022371;28;20471;-43
2022/12/26 11:08:07;;;;;;;17.50;16.07;;;22.90;72.00;;;;;;5023074;28;20472;-43
2022/12/26 11:10:34;;;;;;;25.27;23.60;;;22.80;71.80;;;;;;5015951;28;20463;-47
2022/12/26 11:13:02;;;;;;;20.30;19.10;;;22.80;72.00;;;;;;5024125;28;20462;-43
2022/12/26 11:15:33;;;;;;;23.40;22.30;;;22.80;71.90;;;;;;5028401;28;20471;-43
2022/12/26 11:18:09;;;;;;;29.87;28.30;;;22.80;72.00;;;;;;5015608;28;20479;-43
2022/12/26 11:20:36;;;;;;;36.47;34.63;;;22.80;72.00;;;;;;5021987;28;20486;-45
2022/12/26 11:23:25;;;;;;;54.30;52.03;;;22.80;72.20;;;;;;5028128;28;20467;-43
2022/12/26 11:25:53;;;;;;;34.27;32.83;;;22.90;72.00;;;;;;5024247;28;20475;-43
2022/12/26 11:28:25;;;;;;;44.37;42.23;;;23.00;71.80;;;;;;5034930;28;20461;-45
2022/12/26 11:30:54;;;;;;;46.37;44.03;;;23.10;71.60;;;;;;5030959;28;20500;-45
2022/12/26 11:33:27;;;;;;;54.83;52.43;;;23.10;71.40;;;;;;5028922;28;20480;-46
2022/12/26 11:36:05;;;;;;;42.50;40.83;;;23.00;71.80;;;;;;5035803;28;20965;-44
2022/12/26 11:38:38;;;;;;;42.93;41.03;;;23.00;71.80;;;;;;5030203;28;20471;-44
2022/12/26 11:43:55;;;;;;;41.33;39.63;;;23.10;71.40;;;;;;5029940;28;20451;-45
2022/12/26 11:46:33;;;;;;;69.90;67.10;;;23.20;71.00;;;;;;5024619;28;20822;-44
2022/12/26 11:49:00;;;;;;;45.10;43.20;;;23.20;70.80;;;;;;5022675;28;20463;-44
2022/12/26 11:51:35;;;;;;;39.77;38.03;;;23.20;70.70;;;;;;5029621;28;20463;-46
2022/12/26 11:54:28;;;;;;;44.90;42.90;;;23.10;70.40;;;;;;5024271;28;20545;-45
2022/12/26 11:57:20;;;;;;;44.63;42.70;;;23.20;70.40;;;;;;5019666;28;22278;-42
2022/12/26 11:59:49;;;;;;;35.50;33.80;;;23.20;70.40;;;;;;5020871;28;21060;-46
2022/12/26 12:02:29;;;;;;;48.67;46.53;;;23.20;70.20;;;;;;5026078;28;20464;-44
2022/12/26 12:05:00;;;;;;;54.33;51.93;;;23.20;70.00;;;;;;5021667;28;20463;-44
2022/12/26 12:07:43;;;;;;;47.57;45.77;;;23.20;70.00;;;;;;5022355;28;20606;-44
2022/12/26 12:10:41;;;;;;;49.57;47.53;;;23.30;69.90;;;;;;5027462;28;20471;-45
2022/12/26 12:13:20;;;;;;;55.23;52.87;;;23.30;69.90;;;;;;5020489;28;20896;-44
2022/12/26 12:15:55;;;;;;;46.53;44.67;;;23.30;69.80;;;;;;5024614;28;20467;-43
2022/12/26 12:18:43;;;;;;;35.10;33.63;;;23.30;69.70;;;;;;5022857;28;20835;-44
2022/12/26 12:21:17;;;;;;;53.10;50.90;;;23.20;69.80;;;;;;5029202;28;20486;-44
2022/12/26 12:23:58;;;;;;;44.50;42.80;;;23.10;69.80;;;;;;5028512;28;20839;-44
2022/12/26 12:26:32;;;;;;;57.27;55.03;;;23.10;70.00;;;;;;5022890;28;20468;-46
2022/12/26 12:29:23;;;;;;;57.77;55.30;;;23.00;69.80;;;;;;5028477;28;20471;-44
2022/12/26 12:32:04;;;;;;;59.03;56.67;;;23.00;69.90;;;;;;5024256;28;20455;-51
2022/12/26 12:34:45;;;;;;;64.83;62.33;;;23.00;69.90;;;;;;5031243;28;20484;-43
2022/12/26 12:37:24;;;;;;;62.77;60.13;;;23.00;69.90;;;;;;5026583;28;20451;-45
2022/12/26 12:39:58;;;;;;;57.63;55.57;;;23.10;70.00;;;;;;5029026;28;20480;-45
2022/12/26 12:42:45;;;;;;;84.47;81.43;;;23.20;69.70;;;;;;5022652;28;20494;-44
2022/12/26 12:45:29;;;;;;;74.20;71.57;;;23.20;69.60;;;;;;5030430;28;20467;-44
2022/12/26 12:48:14;;;;;;;100.20;96.63;;;23.30;69.30;;;;;;5028647;28;20490;-43
2022/12/26 12:50:48;;;;;;;101.23;97.23;;;23.20;69.30;;;;;;5025436;28;20464;-43
2022/12/26 12:53:26;;;;;;;87.10;83.97;;;23.30;69.30;;;;;;5031052;28;20507;-44
2022/12/26 12:56:08;;;;;;;80.60;77.67;;;23.30;69.20;;;;;;5025057;28;20832;-43
2022/12/26 12:58:43;;;;;;;68.47;65.80;;;23.30;69.20;;;;;;5021143;28;20455;-43
2022/12/26 13:01:15;;;;;;;72.57;69.87;;;23.30;69.00;;;;;;5023306;28;20471;-45
2022/12/26 13:03:49;;;;;;;88.77;85.43;;;23.30;69.10;;;;;;5028956;28;20464;-43
2022/12/26 13:06:23;;;;;;;104.17;100.27;;;23.30;69.20;;;;;;5024991;28;20840;-42
2022/12/26 13:08:54;;;;;;;72.57;69.83;;;23.30;69.10;;;;;;5021616;28;20826;-44
2022/12/26 13:11:26;;;;;;;84.07;80.93;;;23.30;69.10;;;;;;5025327;28;21014;-44
2022/12/26 13:13:56;;;;;;;92.43;88.97;;;23.30;69.00;;;;;;5024325;28;20476;-43
2022/12/26 13:16:26;;;;;;;98.40;94.73;;;23.30;69.10;;;;;;5027476;28;20491;-42
2022/12/26 13:18:58;;;;;;;98.27;94.33;;;23.30;69.30;;;;;;5022211;28;20483;-39
2022/12/26 13:21:29;;;;;;;123.77;119.27;;;23.30;68.10;;;;;;5019978;28;20480;-39
2022/12/26 13:26:48;;;;;;;395.10;378.90;;;22.80;70.00;;;;;;5023995;28;20851;-39
2022/12/26 13:29:20;;;;;;;130.30;125.37;;;22.60;70.30;;;;;;5021043;28;20468;-39
2022/12/26 13:31:47;;;;;;;265.43;255.50;;;22.40;70.90;;;;;;5028468;28;20481;-41
2022/12/26 13:34:17;;;;;;;285.67;275.07;;;22.20;71.20;;;;;;5027805;28;20823;-40
2022/12/26 13:36:47;;;;;;;207.50;200.07;;;22.20;71.50;;;;;;5027131;28;20468;-39
2022/12/26 13:39:32;;;;;;;234.63;225.93;;;22.20;71.70;;;;;;5025042;28;20479;-40
2022/12/26 13:44:50;;;;;;;293.33;282.07;;;22.60;71.10;;;;;;5034716;28;20471;-40
2022/12/26 13:47:34;;;;;;;292.83;282.00;;;22.70;70.60;;;;;;5026919;28;20471;-40
2022/12/26 13:50:46;;;;;;;343.43;330.33;;;22.80;70.30;;;;;;5024568;28;21010;-40
2022/12/26 13:53:30;;;;;;;390.90;374.97;;;22.80;70.70;;;;;;4985903;28;20462;-40
2022/12/26 13:55:58;;;;;;;436.33;418.13;;;22.90;69.70;;;;;;4976060;28;20477;-40
2022/12/26 13:58:44;;;;;;;457.73;438.17;;;22.90;69.50;;;;;;5014564;28;20910;-40
2022/12/26 14:01:33;;;;;;;424.60;406.80;;;23.00;69.40;;;;;;5021474;28;20960;-39
2022/12/26 14:04:17;;;;;;;481.97;460.60;;;23.00;69.20;;;;;;5022352;28;20463;-40
2022/12/26 14:06:57;;;;;;;546.93;520.53;;;23.10;69.20;;;;;;5016054;28;20466;-39
2022/12/26 14:09:53;;;;;;;590.43;559.53;;;23.10;69.10;;;;;;5032194;28;20459;-40
2022/12/26 14:12:34;;;;;;;178.23;171.03;;;23.10;69.10;;;;;;5026571;28;20471;-40
2022/12/26 14:15:15;;;;;;;219.70;211.90;;;23.10;69.00;;;;;;5028946;28;20486;-40
2022/12/26 14:17:51;;;;;;;403.10;387.03;;;23.00;68.90;;;;;;5031470;28;20463;-39
2022/12/26 14:20:29;;;;;;;58.00;55.73;;;23.10;69.10;;;;;;5026263;28;20506;-39
2022/12/26 14:23:07;;;;;;;417.47;399.90;;;23.10;69.10;;;;;;5029908;28;20460;-39
2022/12/26 14:25:51;;;;;;;480.37;459.07;;;23.00;69.00;;;;;;5023646;28;20587;-39
2022/12/26 14:28:25;;;;;;;518.10;494.20;;;23.00;69.00;;;;;;5019601;28;20464;-39
2022/12/26 14:31:08;;;;;;;571.60;544.07;;;23.00;69.00;;;;;;5032353;28;20460;-40
2022/12/26 14:33:39;;;;;;;533.80;508.43;;;23.00;69.00;;;;;;5026029;28;20472;-39
2022/12/26 14:36:25;;;;;;;597.00;566.20;;;23.00;69.00;;;;;;5013222;28;20495;-40
2022/12/26 14:39:00;;;;;;;600.33;570.22;;;23.00;69.00;;;;;;5015891;28;20464;-39
2022/12/26 14:44:37;;;;;;;637.17;602.33;;;22.90;68.80;;;;;;5030660;28;20466;-41
2022/12/26 14:47:05;;;;;;;640.60;604.87;;;22.90;68.80;;;;;;5031304;28;20461;-40
2022/12/26 14:49:39;;;;;;;652.87;615.40;;;22.90;68.90;;;;;;5024108;28;20465;-40
2022/12/26 14:52:39;;;;;;;690.77;650.07;;;22.90;69.20;;;;;;5024977;28;20463;-40
2022/12/26 14:55:51;;;;;;;641.80;604.80;;;22.90;68.90;;;;;;5022323;28;20546;-41
2022/12/26 14:58:43;;;;;;;585.67;555.70;;;22.90;68.90;;;;;;5009313;28;20465;-40
2022/12/26 15:01:56;;;;;;;651.07;614.70;;;22.90;68.80;;;;;;5011944;28;20494;-41
2022/12/26 15:04:54;;;;;;;691.37;648.67;;;22.90;68.70;;;;;;5007957;28;20471;-41
2022/12/26 15:08:00;;;;;;;645.75;610.83;;;22.90;68.80;;;;;;5032043;28;20863;-42
2022/12/26 15:11:04;;;;;;;627.77;592.97;;;22.90;68.70;;;;;;5022292;28;20197;-49
2022/12/26 15:13:51;;;;;;;552.47;526.53;;;22.90;68.70;;;;;;5022973;28;20455;-40
2022/12/26 15:16:33;;;;;;;552.10;525.40;;;22.90;68.60;;;;;;5030828;28;20460;-41